Time;durP1;ratioP1;P1;durP2;ratioP2;P2;SDS_P1;SDS_P2;PMS_P1;PMS_P2;Temp;Humidity;BMP_temperature;BMP_pressure;BME280_temperature;BME280_humidity;BME280_pressure;Samples;Min_cycle;Max_cycle;Signal;HPM_P1;HPM_P2
2021/12/31 00:02:20;;;;;;;12.90;5.68;;;;;;;10.81;88.21;100292.31;5013631;28;20085;-56
2021/12/31 00:04:46;;;;;;;13.05;5.78;;;;;;;10.80;88.07;100291.41;5012644;28;20041;-56
2021/12/31 00:07:14;;;;;;;14.07;5.05;;;;;;;10.82;87.65;100294.91;4996244;28;20092;-56
2021/12/31 00:09:46;;;;;;;9.75;4.82;;;;;;;10.82;87.94;100299.25;4996130;28;20040;-56
2021/12/31 00:12:11;;;;;;;11.18;5.32;;;;;;;10.82;87.96;100294.06;4996564;28;20471;-56
2021/12/31 00:14:37;;;;;;;15.32;6.15;;;;;;;10.82;87.91;100292.31;5012448;28;20497;-55
2021/12/31 00:17:08;;;;;;;16.17;5.10;;;;;;;10.82;87.99;100302.69;5013856;28;20045;-56
2021/12/31 00:19:39;;;;;;;12.15;4.60;;;;;;;10.81;87.73;100300.94;5012197;28;20464;-56
2021/12/31 00:22:29;;;;;;;13.60;6.47;;;;;;;10.81;87.64;100293.16;4996514;28;20034;-56
2021/12/31 00:24:56;;;;;;;16.90;5.63;;;;;;;10.81;87.70;100295.75;5013482;28;20041;-56
2021/12/31 00:27:25;;;;;;;11.02;5.50;;;;;;;10.81;88.07;100289.72;5012395;28;20569;-55
2021/12/31 00:29:51;;;;;;;11.98;4.68;;;;;;;10.81;88.23;100292.31;5013597;28;20061;-56
2021/12/31 00:32:19;;;;;;;12.80;5.22;;;;;;;10.81;88.05;100284.53;5013614;28;20120;-56
2021/12/31 00:34:45;;;;;;;15.90;4.80;;;;;;;10.81;87.86;100289.72;5013524;28;20041;-56
2021/12/31 00:37:11;;;;;;;11.40;5.05;;;;;;;10.81;88.20;100284.53;5012542;28;20049;-56
2021/12/31 00:39:39;;;;;;;13.93;5.75;;;;;;;10.80;88.19;100281.03;5013135;28;20034;-56
2021/12/31 00:42:08;;;;;;;16.55;5.68;;;;;;;10.81;87.78;100282.78;5012293;28;20034;-56
2021/12/31 00:44:33;;;;;;;12.20;4.97;;;;;;;10.80;87.91;100280.19;5015776;28;20037;-56
2021/12/31 00:47:01;;;;;;;8.77;4.45;;;;;;;10.80;87.95;100280.19;5016022;28;20496;-56
2021/12/31 00:49:27;;;;;;;11.30;4.90;;;;;;;10.81;87.90;100279.34;4999993;28;20050;-56
2021/12/31 00:51:52;;;;;;;14.30;5.93;;;;;;;10.81;88.21;100282.78;5016944;28;20034;-56
2021/12/31 00:54:18;;;;;;;14.15;5.18;;;;;;;10.81;87.89;100281.94;5017327;28;20112;-56
2021/12/31 00:56:46;;;;;;;10.85;5.07;;;;;;;10.80;88.12;100273.28;5016739;28;20030;-56
2021/12/31 00:59:14;;;;;;;13.65;4.78;;;;;;;10.79;87.74;100279.28;4999368;28;20034;-56
2021/12/31 01:01:40;;;;;;;15.02;5.05;;;;;;;10.79;87.96;100276.69;5017124;28;20042;-56
2021/12/31 01:04:08;;;;;;;11.57;4.35;;;;;;;10.81;87.68;100274.16;4999408;28;20041;-56
2021/12/31 01:06:36;;;;;;;11.07;3.88;;;;;;;10.81;87.70;100281.94;4999311;28;20048;-55
2021/12/31 01:09:07;;;;;;;9.60;4.07;;;;;;;10.82;88.10;100284.53;5016963;28;20065;-56
2021/12/31 01:11:35;;;;;;;9.25;4.57;;;;;;;10.82;87.95;100275.91;4999135;28;20045;-56
2021/12/31 01:14:09;;;;;;;10.50;3.88;;;;;;;10.82;87.99;100279.38;5015810;28;20030;-56
2021/12/31 01:16:38;;;;;;;12.02;4.65;;;;;;;10.81;87.88;100285.38;5017338;28;20474;-56
2021/12/31 01:21:33;;;;;;;10.00;4.20;;;;;;;10.80;87.79;100278.44;5015388;28;20041;-56
2021/12/31 01:24:00;;;;;;;13.27;4.13;;;;;;;10.80;87.61;100286.22;5015289;28;20061;-56
2021/12/31 01:26:26;;;;;;;10.23;4.03;;;;;;;10.81;87.75;100290.56;5016596;28;20034;-56
2021/12/31 01:28:56;;;;;;;7.80;3.67;;;;;;;10.80;87.73;100286.22;5016617;28;20037;-56
2021/12/31 01:31:25;;;;;;;9.40;4.00;;;;;;;10.79;88.01;100276.69;4999792;28;20049;-56
2021/12/31 01:33:51;;;;;;;7.20;4.20;;;;;;;10.81;87.74;100279.34;5016667;28;20030;-56
2021/12/31 01:36:17;;;;;;;11.02;3.78;;;;;;;10.80;87.95;100281.03;5016616;28;20038;-56
2021/12/31 01:38:44;;;;;;;8.70;4.50;;;;;;;10.81;87.87;100292.31;5015291;28;20398;-56
2021/12/31 01:41:13;;;;;;;7.10;4.03;;;;;;;10.81;87.95;100279.34;5016368;28;20038;-56
2021/12/31 01:43:44;;;;;;;7.07;4.05;;;;;;;10.80;88.12;100269.81;5016291;28;20485;-56
2021/12/31 01:46:15;;;;;;;5.82;3.95;;;;;;;10.82;88.07;100270.72;5016410;28;20064;-56
2021/12/31 01:49:00;;;;;;;8.25;3.53;;;;;;;10.82;87.44;100271.59;5016718;28;20060;-56
2021/12/31 01:51:29;;;;;;;8.23;3.40;;;;;;;10.81;87.60;100271.56;5016240;28;20052;-56
2021/12/31 01:53:57;;;;;;;6.53;4.60;;;;;;;10.82;87.62;100278.50;5016038;28;20037;-56
2021/12/31 01:56:27;;;;;;;6.75;3.88;;;;;;;10.81;87.46;100282.78;5014122;28;20038;-56
2021/12/31 01:59:01;;;;;;;9.40;3.80;;;;;;;10.82;87.78;100286.28;5016549;28;20034;-56
2021/12/31 02:01:29;;;;;;;8.35;3.83;;;;;;;10.81;87.46;100284.53;4997890;28;20049;-56
2021/12/31 02:03:59;;;;;;;7.20;3.72;;;;;;;10.81;87.90;100287.13;5014773;28;20037;-56
2021/12/31 02:06:26;;;;;;;9.65;4.22;;;;;;;10.80;87.73;100283.63;4999046;28;20108;-56
2021/12/31 02:08:55;;;;;;;8.57;4.32;;;;;;;10.82;87.57;100278.50;4998815;28;20130;-56
2021/12/31 02:11:25;;;;;;;10.60;4.15;;;;;;;10.82;87.85;100279.38;5014464;28;20041;-55
2021/12/31 02:13:51;;;;;;;7.45;4.10;;;;;;;10.82;87.72;100288.88;4998389;28;20030;-55
2021/12/31 02:16:17;;;;;;;9.75;4.05;;;;;;;10.80;87.54;100296.59;5015532;28;20064;-56
2021/12/31 02:18:44;;;;;;;10.93;4.57;;;;;;;10.80;87.62;100281.03;5015916;28;20378;-56
2021/12/31 02:21:14;;;;;;;12.70;4.47;;;;;;;10.81;87.55;100279.34;5015419;28;20440;-56
2021/12/31 02:23:47;;;;;;;7.85;4.95;;;;;;;10.81;87.42;100272.44;5014216;28;20034;-55
2021/12/31 02:26:13;;;;;;;8.45;3.63;;;;;;;10.81;87.42;100275.03;5014708;28;20088;-56
2021/12/31 02:28:40;;;;;;;9.52;4.90;;;;;;;10.82;87.56;100275.91;5015420;28;20512;-56
2021/12/31 02:31:06;;;;;;;12.35;5.20;;;;;;;10.82;87.62;100265.53;4997375;28;20053;-56
2021/12/31 02:33:35;;;;;;;16.65;5.38;;;;;;;10.82;87.42;100260.34;5013606;28;20042;-56
2021/12/31 02:36:04;;;;;;;12.27;4.68;;;;;;;10.80;88.04;100262.91;4997766;28;20041;-56
2021/12/31 02:38:32;;;;;;;11.57;4.38;;;;;;;10.81;87.88;100263.78;4997779;28;20036;-56
2021/12/31 02:41:00;;;;;;;10.40;4.50;;;;;;;10.81;87.31;100266.38;4997740;28;20121;-56
2021/12/31 02:43:26;;;;;;;12.55;4.50;;;;;;;10.81;87.42;100256.00;4997084;28;20129;-56
2021/12/31 02:45:51;;;;;;;10.35;4.07;;;;;;;10.81;87.58;100267.25;5013741;28;20113;-56
2021/12/31 02:48:24;;;;;;;7.22;3.67;;;;;;;10.79;87.54;100262.88;5014495;28;20053;-56
2021/12/31 02:50:55;;;;;;;7.37;4.30;;;;;;;10.77;88.02;100252.47;4997857;28;20034;-56
2021/12/31 02:53:37;;;;;;;11.25;4.50;;;;;;;10.80;87.49;100251.66;5015082;28;20038;-56
2021/12/31 02:56:11;;;;;;;9.13;4.00;;;;;;;10.78;87.83;100245.56;4997635;28;20041;-56
2021/12/31 02:58:38;;;;;;;11.77;4.53;;;;;;;10.78;87.33;100243.84;4997359;28;20069;-56
2021/12/31 03:01:05;;;;;;;7.50;3.70;;;;;;;10.76;87.71;100244.69;4997377;28;20489;-55
2021/12/31 03:03:33;;;;;;;11.30;4.00;;;;;;;10.75;87.34;100240.34;4996905;28;20489;-55
2021/12/31 03:05:59;;;;;;;7.57;4.13;;;;;;;10.76;87.70;100236.91;4996906;28;20076;-56
2021/12/31 03:08:29;;;;;;;9.73;4.50;;;;;;;10.75;87.62;100235.16;5014719;28;20061;-56
2021/12/31 03:10:56;;;;;;;8.35;4.68;;;;;;;10.73;87.81;100242.00;4996988;28;20061;-56
2021/12/31 03:13:24;;;;;;;13.65;4.80;;;;;;;10.73;87.57;100234.25;4997155;28;20042;-56
2021/12/31 03:15:53;;;;;;;7.63;4.53;;;;;;;10.72;87.68;100241.16;5013934;28;20041;-56
2021/12/31 03:18:20;;;;;;;16.08;5.15;;;;;;;10.72;87.60;100238.56;5014743;28;20065;-56
2021/12/31 03:20:57;;;;;;;14.18;4.30;;;;;;;10.70;87.53;100240.25;4997086;28;20049;-56
2021/12/31 03:23:29;;;;;;;10.02;4.95;;;;;;;10.68;87.79;100228.97;5014509;28;20029;-56
2021/12/31 03:25:54;;;;;;;10.77;5.18;;;;;;;10.69;87.68;100235.91;5014544;28;20117;-56
2021/12/31 03:28:21;;;;;;;9.40;4.30;;;;;;;10.68;87.60;100233.28;5014568;28;20065;-56
2021/12/31 03:30:47;;;;;;;13.00;3.97;;;;;;;10.68;87.50;100238.44;5013059;28;20088;-56
2021/12/31 03:33:17;;;;;;;10.25;4.72;;;;;;;10.68;87.48;100241.03;4996614;28;20029;-56
2021/12/31 03:35:44;;;;;;;8.05;4.93;;;;;;;10.67;87.35;100237.59;4996678;28;20141;-56
2021/12/31 03:38:11;;;;;;;10.68;4.68;;;;;;;10.69;87.31;100232.44;4996608;28;20032;-56
2021/12/31 03:40:38;;;;;;;10.02;4.47;;;;;;;10.68;87.47;100247.13;4996595;28;20084;-56
2021/12/31 03:43:08;;;;;;;6.88;4.30;;;;;;;10.68;87.66;100246.22;5012909;28;20030;-56
2021/12/31 03:45:38;;;;;;;9.50;4.05;;;;;;;10.68;87.56;100239.34;5013748;28;20042;-56
2021/12/31 03:48:07;;;;;;;6.88;4.78;;;;;;;10.67;87.76;100235.00;5012817;28;20034;-56
2021/12/31 03:50:33;;;;;;;10.57;4.72;;;;;;;10.68;87.32;100238.44;4996208;28;20044;-57
2021/12/31 03:52:58;;;;;;;10.77;4.45;;;;;;;10.68;87.77;100249.72;5012919;28;20033;-56
2021/12/31 03:55:24;;;;;;;13.73;4.80;;;;;;;10.66;87.63;100241.94;5013951;28;20497;-56
2021/12/31 03:57:50;;;;;;;15.80;4.70;;;;;;;10.65;87.44;100242.75;5013740;28;20523;-56
2021/12/31 04:00:16;;;;;;;12.77;5.35;;;;;;;10.65;87.67;100235.00;5013546;28;20053;-56
2021/12/31 04:02:42;;;;;;;10.18;4.45;;;;;;;10.64;87.38;100246.19;4995826;28;20051;-56
2021/12/31 04:05:08;;;;;;;16.35;4.55;;;;;;;10.63;87.45;100241.84;5013923;28;20041;-57
2021/12/31 04:07:34;;;;;;;8.32;4.15;;;;;;;10.62;87.49;100244.41;4996678;28;20611;-56
2021/12/31 04:10:00;;;;;;;12.10;4.63;;;;;;;10.63;87.67;100243.56;5013867;28;20120;-56
2021/12/31 04:12:28;;;;;;;9.40;4.68;;;;;;;10.63;87.45;100247.03;5013722;28;20501;-56
2021/12/31 04:14:53;;;;;;;13.10;5.32;;;;;;;10.62;87.63;100250.47;4996239;28;20038;-56
2021/12/31 04:17:19;;;;;;;11.25;4.00;;;;;;;10.61;87.77;100248.72;5012349;28;20052;-56
2021/12/31 04:19:49;;;;;;;7.38;3.80;;;;;;;10.61;87.70;100246.13;5013575;28;20045;-58
2021/12/31 04:22:14;;;;;;;9.93;4.18;;;;;;;10.62;87.36;100245.28;5013410;28;20405;-56
2021/12/31 04:27:13;;;;;;;11.85;4.40;;;;;;;10.60;87.63;100236.59;5013561;28;20096;-56
2021/12/31 04:29:49;;;;;;;16.95;4.40;;;;;;;10.59;87.22;100246.97;5012634;28;20100;-56
2021/12/31 04:32:19;;;;;;;12.90;3.90;;;;;;;10.58;87.50;100253.84;5012594;28;20061;-56
2021/12/31 04:34:47;;;;;;;9.48;4.75;;;;;;;10.59;87.20;100228.81;4996266;28;20584;-56
2021/12/31 04:37:19;;;;;;;7.85;3.95;;;;;;;10.56;87.54;100221.84;5012849;28;20045;-56
2021/12/31 04:39:44;;;;;;;10.60;4.47;;;;;;;10.58;87.61;100230.53;5013324;28;20493;-56
2021/12/31 04:42:10;;;;;;;13.05;4.78;;;;;;;10.57;87.54;100231.38;5013390;28;20030;-56
2021/12/31 04:44:35;;;;;;;10.77;5.03;;;;;;;10.57;87.40;100227.91;5013501;28;20038;-56
2021/12/31 04:47:04;;;;;;;10.05;4.72;;;;;;;10.57;87.42;100233.94;5013425;28;20038;-56
2021/12/31 04:49:32;;;;;;;9.95;4.47;;;;;;;10.54;87.71;100223.53;5013745;28;20030;-56
2021/12/31 04:51:58;;;;;;;6.80;4.20;;;;;;;10.55;87.21;100217.50;4996440;28;20128;-56
2021/12/31 04:54:23;;;;;;;10.85;5.07;;;;;;;10.55;87.63;100224.41;5013447;28;20450;-56
2021/12/31 04:56:52;;;;;;;9.57;5.15;;;;;;;10.53;87.73;100210.56;5012128;28;20037;-56
2021/12/31 04:59:23;;;;;;;9.30;4.75;;;;;;;10.50;87.48;100219.16;4995926;28;20045;-56
2021/12/31 05:01:56;;;;;;;11.80;5.45;;;;;;;10.51;87.60;100223.47;5011964;28;20486;-56
2021/12/31 05:04:25;;;;;;;8.68;5.03;;;;;;;10.50;87.34;100229.50;5011635;28;20087;-56
2021/12/31 05:07:01;;;;;;;15.30;5.30;;;;;;;10.48;87.30;100233.78;5013413;28;20038;-56
2021/12/31 05:09:26;;;;;;;15.93;5.27;;;;;;;10.48;87.49;100237.25;4995864;28;20053;-55
2021/12/31 05:11:52;;;;;;;11.10;4.97;;;;;;;10.47;87.24;100245.00;5013324;28;20042;-56
2021/12/31 05:14:18;;;;;;;9.40;5.30;;;;;;;10.46;87.26;100238.06;5013149;28;20038;-56
2021/12/31 05:16:44;;;;;;;7.88;4.70;;;;;;;10.46;87.59;100238.06;4995928;28;20034;-56
2021/12/31 05:19:09;;;;;;;12.40;5.47;;;;;;;10.45;87.17;100241.50;5012816;28;20109;-56
2021/12/31 05:21:35;;;;;;;7.70;4.68;;;;;;;10.45;87.16;100239.75;5013168;28;20092;-56
2021/12/31 05:24:03;;;;;;;7.60;4.32;;;;;;;10.45;87.51;100241.50;5013064;28;20034;-56
2021/12/31 05:26:33;;;;;;;9.65;5.45;;;;;;;10.43;87.38;100238.84;4996011;28;20462;-56
2021/12/31 05:29:02;;;;;;;10.23;5.55;;;;;;;10.44;87.43;100239.75;5012566;28;20081;-56
2021/12/31 05:31:33;;;;;;;9.65;5.28;;;;;;;10.42;87.48;100234.56;5016834;28;20042;-56
2021/12/31 05:34:01;;;;;;;9.85;4.75;;;;;;;10.43;87.23;100228.50;5015727;28;20042;-56
2021/12/31 05:36:34;;;;;;;10.18;5.13;;;;;;;10.42;87.35;100229.38;5015505;28;20489;-55
2021/12/31 05:39:00;;;;;;;9.05;4.63;;;;;;;10.39;87.12;100237.06;5016321;28;20034;-56
2021/12/31 05:41:25;;;;;;;10.68;5.22;;;;;;;10.40;87.36;100224.97;5014917;28;20041;-56
2021/12/31 05:43:53;;;;;;;10.95;4.95;;;;;;;10.41;87.11;100218.94;5016125;28;20064;-56
2021/12/31 05:46:22;;;;;;;10.65;5.15;;;;;;;10.39;87.49;100221.53;5016825;28;20034;-56
2021/12/31 05:48:50;;;;;;;8.02;4.35;;;;;;;10.38;87.17;100222.38;5015156;28;20046;-56
2021/12/31 05:51:17;;;;;;;13.00;5.18;;;;;;;10.38;87.10;100224.97;5015271;28;20069;-56
2021/12/31 05:53:45;;;;;;;13.32;5.80;;;;;;;10.39;87.12;100215.44;5016209;28;20038;-55
2021/12/31 05:56:11;;;;;;;8.07;4.85;;;;;;;10.36;87.13;100213.66;4998247;28;20046;-56
2021/12/31 05:58:46;;;;;;;6.82;4.72;;;;;;;10.35;87.45;100212.75;5016308;28;20489;-56
2021/12/31 06:01:14;;;;;;;8.68;4.97;;;;;;;10.35;87.31;100215.34;5014503;28;20045;-56
2021/12/31 06:03:40;;;;;;;12.07;5.53;;;;;;;10.34;87.14;100218.81;5015810;28;20109;-56
2021/12/31 06:06:13;;;;;;;9.25;4.22;;;;;;;10.35;87.51;100209.31;5015774;28;20038;-55
2021/12/31 06:08:41;;;;;;;7.95;4.85;;;;;;;10.33;87.28;100217.06;4998296;28;20100;-56
2021/12/31 06:11:11;;;;;;;9.55;4.15;;;;;;;10.33;87.24;100211.88;5015839;28;20042;-56
2021/12/31 06:13:37;;;;;;;8.60;4.47;;;;;;;10.33;87.32;100205.81;5015463;28;20030;-55
2021/12/31 06:16:04;;;;;;;10.82;4.30;;;;;;;10.32;87.16;100210.13;5015839;28;20134;-55
2021/12/31 06:18:33;;;;;;;8.23;3.88;;;;;;;10.31;87.23;100208.38;5015761;28;20069;-55
2021/12/31 06:21:01;;;;;;;9.05;4.53;;;;;;;10.29;86.92;100198.81;5015680;28;20526;-55
2021/12/31 06:23:31;;;;;;;5.75;4.45;;;;;;;10.29;87.40;100193.63;5015598;28;20041;-56
2021/12/31 06:25:57;;;;;;;6.90;4.53;;;;;;;10.28;87.23;100190.19;5014094;28;20068;-56
2021/12/31 06:28:22;;;;;;;8.68;4.35;;;;;;;10.27;87.22;100190.16;5015739;28;20034;-55
2021/12/31 06:30:47;;;;;;;7.97;4.15;;;;;;;10.27;87.35;100188.44;5014218;28;20034;-56
2021/12/31 06:33:13;;;;;;;9.18;4.32;;;;;;;10.25;87.38;100192.72;4997923;28;20050;-55
2021/12/31 06:35:41;;;;;;;11.68;4.70;;;;;;;10.24;86.99;100190.09;5015430;28;20038;-57
2021/12/31 06:38:07;;;;;;;5.88;4.20;;;;;;;10.25;87.21;100184.09;5015567;28;20092;-55
2021/12/31 06:40:35;;;;;;;7.22;4.18;;;;;;;10.25;87.08;100181.50;4997265;28;20147;-56
2021/12/31 06:43:00;;;;;;;8.93;3.78;;;;;;;10.25;87.30;100190.13;5015366;28;20037;-56
2021/12/31 06:45:26;;;;;;;11.20;4.68;;;;;;;10.25;87.22;100178.91;5015396;28;20117;-55
2021/12/31 06:47:52;;;;;;;7.03;3.80;;;;;;;10.23;87.14;100181.44;5015192;28;20041;-55
2021/12/31 06:50:17;;;;;;;6.90;3.83;;;;;;;10.24;87.25;100179.75;5015140;28;20057;-57
2021/12/31 06:52:43;;;;;;;6.28;3.75;;;;;;;10.24;87.25;100187.50;4997484;28;20072;-56
2021/12/31 06:55:09;;;;;;;12.13;4.38;;;;;;;10.23;87.03;100172.81;5015115;28;20108;-56
2021/12/31 06:57:35;;;;;;;8.57;4.78;;;;;;;10.21;86.80;100183.13;4997395;28;20042;-56
2021/12/31 07:00:04;;;;;;;6.38;3.55;;;;;;;10.19;87.04;100177.06;4997334;28;20472;-56
2021/12/31 07:02:30;;;;;;;6.70;3.92;;;;;;;10.19;87.05;100172.75;5013372;28;20133;-55
2021/12/31 07:04:55;;;;;;;7.05;4.07;;;;;;;10.20;86.86;100181.38;5013594;28;20464;-56
2021/12/31 07:07:21;;;;;;;7.68;3.90;;;;;;;10.20;86.92;100173.59;5014800;28;20038;-56
2021/12/31 07:09:49;;;;;;;7.35;4.55;;;;;;;10.17;87.01;100165.81;5013635;28;20129;-56
2021/12/31 07:12:15;;;;;;;7.28;4.68;;;;;;;10.18;86.76;100170.16;5014907;28;20030;-56
2021/12/31 07:14:40;;;;;;;5.80;4.18;;;;;;;10.18;86.96;100172.72;5014290;28;20044;-56
2021/12/31 07:17:06;;;;;;;7.85;4.00;;;;;;;10.17;86.73;100178.75;5014664;28;20044;-56
2021/12/31 07:19:31;;;;;;;7.43;4.75;;;;;;;10.20;86.90;100189.16;5014646;28;20504;-56
2021/12/31 07:22:02;;;;;;;9.48;4.55;;;;;;;10.19;86.74;100184.84;5013263;28;20472;-56
2021/12/31 07:24:27;;;;;;;6.82;4.63;;;;;;;10.17;87.12;100184.78;4997398;28;20453;-56
2021/12/31 07:26:58;;;;;;;4.80;3.47;;;;;;;10.17;86.89;100183.94;5014345;28;20478;-55
2021/12/31 07:29:23;;;;;;;7.13;3.47;;;;;;;10.17;87.21;100173.56;5014466;28;20041;-56
2021/12/31 07:31:49;;;;;;;8.82;4.18;;;;;;;10.16;86.61;100172.69;5014510;28;20087;-55
2021/12/31 07:34:14;;;;;;;6.47;3.50;;;;;;;10.16;87.02;100166.66;5014245;28;20034;-56
2021/12/31 07:36:40;;;;;;;9.38;4.50;;;;;;;10.17;87.00;100166.66;5013125;28;20042;-56
2021/12/31 07:39:08;;;;;;;8.07;4.97;;;;;;;10.16;86.90;100172.69;5014285;28;20042;-56
2021/12/31 07:41:34;;;;;;;7.93;4.13;;;;;;;10.16;86.60;100164.91;4996737;28;20149;-56
2021/12/31 07:44:00;;;;;;;5.00;3.58;;;;;;;10.16;86.63;100172.69;5013092;28;20061;-56
2021/12/31 07:46:25;;;;;;;6.05;3.85;;;;;;;10.14;86.90;100164.00;5013102;28;20487;-56
2021/12/31 07:48:51;;;;;;;5.65;3.75;;;;;;;10.13;86.56;100169.16;5013546;28;20038;-56
2021/12/31 07:51:17;;;;;;;7.03;3.72;;;;;;;10.15;86.58;100175.25;5014073;28;20041;-56
2021/12/31 07:53:43;;;;;;;4.95;3.83;;;;;;;10.14;86.97;100176.09;5012832;28;20038;-56
2021/12/31 07:56:09;;;;;;;7.93;4.43;;;;;;;10.13;86.70;100176.94;4996431;28;20044;-56
2021/12/31 07:58:34;;;;;;;8.13;3.78;;;;;;;10.11;86.85;100183.78;5013113;28;20400;-56
2021/12/31 08:01:00;;;;;;;6.40;4.20;;;;;;;10.13;86.79;100176.94;5013492;28;20034;-56
2021/12/31 08:03:25;;;;;;;4.93;3.75;;;;;;;10.12;86.89;100186.41;5013169;28;20057;-56
2021/12/31 08:05:56;;;;;;;5.07;3.95;;;;;;;10.12;86.48;100194.19;5013611;28;20045;-56
2021/12/31 08:08:24;;;;;;;9.05;4.15;;;;;;;10.13;86.99;100189.88;5013923;28;20037;-56
2021/12/31 08:10:52;;;;;;;8.05;3.88;;;;;;;10.13;86.56;100208.88;5013762;28;20398;-55
2021/12/31 08:13:17;;;;;;;6.32;4.30;;;;;;;10.13;86.73;100206.28;5014170;28;20038;-56
2021/12/31 08:15:43;;;;;;;7.97;4.05;;;;;;;10.14;86.58;100214.94;5013637;28;20374;-56
2021/12/31 08:18:11;;;;;;;7.50;3.65;;;;;;;10.13;86.92;100208.00;5013567;28;20034;-56
2021/12/31 08:20:51;;;;;;;6.53;4.35;;;;;;;10.14;86.91;100212.34;5013170;28;20048;-55
2021/12/31 08:23:17;;;;;;;8.00;4.93;;;;;;;10.14;86.88;100220.13;4996289;28;20037;-55
2021/12/31 08:25:46;;;;;;;5.93;4.53;;;;;;;10.14;86.88;100220.13;5013381;28;20509;-55
2021/12/31 08:28:11;;;;;;;10.60;4.80;;;;;;;10.13;86.65;100215.78;4996152;28;20046;-56
2021/12/31 08:30:38;;;;;;;8.35;4.60;;;;;;;10.13;86.82;100224.41;5013610;28;20030;-56
2021/12/31 08:33:08;;;;;;;9.55;4.15;;;;;;;10.13;86.42;100229.59;5013989;28;20053;-56
2021/12/31 08:35:34;;;;;;;8.00;4.28;;;;;;;10.14;86.57;100233.06;5012945;28;20393;-55
2021/12/31 08:38:00;;;;;;;6.95;4.40;;;;;;;10.12;86.29;100222.66;5013598;28;20037;-56
2021/12/31 08:40:28;;;;;;;5.45;4.30;;;;;;;10.13;86.46;100234.78;5013335;28;20034;-56
2021/12/31 08:42:54;;;;;;;9.77;4.53;;;;;;;10.13;86.73;100239.09;5013476;28;20092;-55
2021/12/31 08:45:20;;;;;;;10.27;5.47;;;;;;;10.14;86.62;100243.44;5013490;28;20042;-56
2021/12/31 08:47:48;;;;;;;8.60;4.03;;;;;;;10.14;86.72;100249.47;5013509;28;20054;-56
2021/12/31 08:50:13;;;;;;;6.82;4.40;;;;;;;10.12;86.69;100234.75;5012350;28;20092;-56
2021/12/31 08:52:39;;;;;;;12.48;5.35;;;;;;;10.12;86.71;100233.03;5013358;28;20108;-55
2021/12/31 08:55:06;;;;;;;6.30;4.45;;;;;;;10.13;86.25;100232.19;5013283;28;20034;-55
2021/12/31 08:57:31;;;;;;;10.98;4.90;;;;;;;10.14;86.60;100231.34;5013249;28;20126;-56
2021/12/31 08:59:57;;;;;;;11.40;5.20;;;;;;;10.12;86.67;100233.03;5013302;28;20503;-56
2021/12/31 09:02:22;;;;;;;9.07;4.25;;;;;;;10.13;86.40;100228.72;5012042;28;20450;-56
2021/12/31 09:04:49;;;;;;;5.45;4.43;;;;;;;10.13;86.52;100227.00;5015206;28;20038;-56
2021/12/31 09:07:15;;;;;;;9.40;4.55;;;;;;;10.13;86.43;100246.88;4999734;28;20129;-56
2021/12/31 09:09:40;;;;;;;8.50;4.65;;;;;;;10.11;86.26;100246.84;5016926;28;20061;-55
2021/12/31 09:12:06;;;;;;;8.82;4.43;;;;;;;10.12;86.32;100255.47;5016970;28;20440;-56
2021/12/31 09:14:32;;;;;;;8.60;5.00;;;;;;;10.13;86.17;100265.00;5015701;28;20450;-56
2021/12/31 09:16:58;;;;;;;6.07;4.10;;;;;;;10.11;86.41;100252.03;5016590;28;20494;-56
2021/12/31 09:19:23;;;;;;;6.43;4.03;;;;;;;10.13;86.38;100254.63;4999191;28;20069;-55
2021/12/31 09:21:49;;;;;;;8.05;4.78;;;;;;;10.11;86.18;100233.91;5015247;28;20127;-56
2021/12/31 09:24:14;;;;;;;10.07;4.47;;;;;;;10.13;86.35;100226.16;5015449;28;20030;-56
2021/12/31 09:26:43;;;;;;;8.55;4.35;;;;;;;10.13;86.15;100223.56;5016821;28;20092;-55
2021/12/31 09:29:08;;;;;;;5.50;4.07;;;;;;;10.13;86.54;100213.19;5015524;28;20119;-55
2021/12/31 09:31:38;;;;;;;6.70;4.35;;;;;;;10.12;86.35;100207.13;5016640;28;20413;-56
2021/12/31 09:34:03;;;;;;;13.05;5.22;;;;;;;10.14;86.30;100213.22;4999029;28;20061;-56
2021/12/31 09:36:30;;;;;;;5.03;4.35;;;;;;;10.14;86.27;100202.84;5016505;28;20069;-56
2021/12/31 09:38:58;;;;;;;8.48;5.13;;;;;;;10.15;86.06;100198.56;5015518;28;20046;-56
2021/12/31 09:41:23;;;;;;;6.85;4.18;;;;;;;10.16;86.29;100196.00;5016604;28;20121;-56
2021/12/31 09:43:50;;;;;;;5.18;4.22;;;;;;;10.17;86.39;100196.88;5016385;28;20059;-56
2021/12/31 09:46:16;;;;;;;7.20;5.20;;;;;;;10.19;86.16;100198.66;4998881;28;20496;-55
2021/12/31 09:48:42;;;;;;;6.32;4.55;;;;;;;10.20;86.44;100192.63;4998756;28;20042;-56
2021/12/31 09:51:07;;;;;;;6.00;5.40;;;;;;;10.20;86.13;100210.75;5016098;28;20061;-56
2021/12/31 09:53:36;;;;;;;8.88;4.53;;;;;;;10.23;86.33;100219.44;5016906;28;20134;-56
2021/12/31 09:56:04;;;;;;;9.38;4.80;;;;;;;10.21;86.37;100227.16;5016220;28;20030;-56
2021/12/31 09:58:29;;;;;;;7.15;4.55;;;;;;;10.24;86.40;100232.41;5016392;28;20037;-56
2021/12/31 10:00:58;;;;;;;8.05;3.67;;;;;;;10.23;86.20;100230.66;5015839;28;20099;-56
2021/12/31 10:03:33;;;;;;;5.90;4.25;;;;;;;10.21;86.18;100245.28;4998139;28;20046;-56
2021/12/31 10:06:01;;;;;;;7.88;4.57;;;;;;;10.24;86.15;100249.69;5016236;28;20041;-55
2021/12/31 10:08:38;;;;;;;4.45;3.63;;;;;;;10.24;85.91;100255.72;5016003;28;20030;-56
2021/12/31 10:11:17;;;;;;;6.80;4.03;;;;;;;10.25;86.22;100246.25;4998364;28;20089;-56
2021/12/31 10:13:44;;;;;;;7.05;3.78;;;;;;;10.25;85.96;100244.53;5016112;28;20482;-56
2021/12/31 10:16:28;;;;;;;5.65;3.40;;;;;;;10.24;86.52;100232.41;4997159;28;20041;-56
2021/12/31 10:19:14;;;;;;;4.82;3.53;;;;;;;10.25;86.29;100247.13;4998250;28;20033;-56
2021/12/31 10:21:44;;;;;;;4.38;3.67;;;;;;;10.25;86.34;100223.81;4998083;28;20092;-55
2021/12/31 10:24:32;;;;;;;5.25;3.72;;;;;;;10.25;86.03;100241.94;5014143;28;20576;-56
2021/12/31 10:27:02;;;;;;;7.45;4.10;;;;;;;10.26;86.58;100259.22;4999252;28;20050;-55
2021/12/31 10:29:28;;;;;;;12.88;4.80;;;;;;;10.27;86.26;100248.03;4998314;28;20041;-56
2021/12/31 10:31:55;;;;;;;6.80;3.70;;;;;;;10.27;86.26;100252.34;5014325;28;20040;-56
2021/12/31 10:34:42;;;;;;;6.57;3.90;;;;;;;10.26;85.93;100261.81;4998315;28;20087;-56
2021/12/31 10:37:23;;;;;;;11.48;4.05;;;;;;;10.27;86.30;100273.06;5015471;28;20038;-55
2021/12/31 10:40:00;;;;;;;6.13;3.65;;;;;;;10.25;85.85;100265.25;5014409;28;20056;-55
2021/12/31 10:42:32;;;;;;;5.10;3.75;;;;;;;10.25;86.26;100264.38;5014182;28;20038;-56
2021/12/31 10:45:00;;;;;;;8.73;4.10;;;;;;;10.26;86.11;100255.78;4997702;28;20092;-56
2021/12/31 10:47:31;;;;;;;5.43;3.30;;;;;;;10.26;86.28;100238.50;4998037;28;20038;-56
2021/12/31 10:50:03;;;;;;;6.28;4.05;;;;;;;10.26;86.15;100233.31;5013907;28;20030;-55
2021/12/31 10:52:42;;;;;;;5.15;3.47;;;;;;;10.27;86.25;100241.97;5015097;28;20044;-56
2021/12/31 10:55:21;;;;;;;8.25;4.20;;;;;;;10.26;86.23;100238.50;4997480;28;20030;-56
2021/12/31 10:57:49;;;;;;;8.57;4.95;;;;;;;10.28;85.88;100247.19;5014204;28;20096;-56
2021/12/31 11:00:17;;;;;;;6.43;3.90;;;;;;;10.28;85.87;100239.41;5013665;28;20060;-56
2021/12/31 11:02:43;;;;;;;5.97;3.65;;;;;;;10.27;85.98;100244.56;4997090;28;20042;-55
2021/12/31 11:05:10;;;;;;;9.38;4.10;;;;;;;10.28;86.20;100231.63;5015178;28;20045;-55
2021/12/31 11:07:37;;;;;;;6.82;4.13;;;;;;;10.28;86.08;100230.75;5014803;28;20061;-56
2021/12/31 11:10:04;;;;;;;7.72;4.05;;;;;;;10.28;85.97;100248.88;4996965;28;20037;-56
2021/12/31 11:12:31;;;;;;;10.13;4.30;;;;;;;10.31;85.93;100265.38;4997346;28;20056;-56
2021/12/31 11:14:57;;;;;;;10.38;3.80;;;;;;;10.32;86.24;100268.84;5013528;28;20042;-56
2021/12/31 11:17:23;;;;;;;4.95;3.75;;;;;;;10.32;86.28;100261.94;4997272;28;20038;-56
2021/12/31 11:19:50;;;;;;;5.63;3.40;;;;;;;10.34;86.08;100256.78;4997081;28;20038;-56
2021/12/31 11:22:21;;;;;;;7.00;4.40;;;;;;;10.34;86.10;100251.59;5014299;28;20056;-56
2021/12/31 11:24:47;;;;;;;5.28;3.72;;;;;;;10.35;85.91;100240.41;5014683;28;20038;-56
2021/12/31 11:27:37;;;;;;;6.32;3.92;;;;;;;10.35;86.28;100237.81;5013215;28;20122;-56
2021/12/31 11:30:03;;;;;;;3.92;3.22;;;;;;;10.34;86.20;100239.53;4996762;28;20077;-56
2021/12/31 11:32:47;;;;;;;3.90;3.55;;;;;;;10.34;85.85;100255.09;4996785;28;20401;-56